sensor_id;sensor_type;location;lat;lon;timestamp;noise_LAeq;noise_LA_min;noise_LA_max;noise_LA01;noise_LA95
69619;Laerm;57653;51.434;5.984;2023-03-12T00:00:01;33.42;32.52;34.24;;
69619;Laerm;57653;51.434;5.984;2023-03-12T00:00:13;33.28;32.23;34.59;;
69619;Laerm;57653;51.434;5.984;2023-03-12T00:00:24;33.31;32.32;34.35;;
69619;Laerm;57653;51.434;5.984;2023-03-12T00:00:34;33.34;32.26;34.41;;
69619;Laerm;57653;51.434;5.984;2023-03-12T00:00:45;33.29;32.29;34.39;;
69619;Laerm;57653;51.434;5.984;2023-03-12T00:00:55;33.28;32.44;34.22;;
69619;Laerm;57653;51.434;5.984;2023-03-12T00:01:09;33.40;32.12;34.43;;
69619;Laerm;57653;51.434;5.984;2023-03-12T00:01:20;33.53;32.70;34.98;;
69619;Laerm;57653;51.434;5.984;2023-03-12T00:01:31;33.48;32.42;34.40;;
69619;Laerm;57653;51.434;5.984;2023-03-12T00:01:42;33.42;32.21;34.31;;
69619;Laerm;57653;51.434;5.984;2023-03-12T00:01:52;33.48;32.21;34.41;;
69619;Laerm;57653;51.434;5.984;2023-03-12T00:02:02;33.59;32.15;34.78;;
69619;Laerm;57653;51.434;5.984;2023-03-12T00:02:13;33.37;32.21;34.39;;
69619;Laerm;57653;51.434;5.984;2023-03-12T00:02:23;33.39;32.24;34.31;;
69619;Laerm;57653;51.434;5.984;2023-03-12T00:02:33;33.35;32.42;34.52;;
69619;Laerm;57653;51.434;5.984;2023-03-12T00:02:44;33.41;32.25;34.30;;
69619;Laerm;57653;51.434;5.984;2023-03-12T00:02:54;33.48;31.98;34.96;;
69619;Laerm;57653;51.434;5.984;2023-03-12T00:03:05;33.57;32.39;34.85;;
69619;Laerm;57653;51.434;5.984;2023-03-12T00:03:15;33.49;32.50;34.76;;
69619;Laerm;57653;51.434;5.984;2023-03-12T00:03:25;33.43;32.38;35.36;;
69619;Laerm;57653;51.434;5.984;2023-03-12T00:03:35;33.47;32.38;34.57;;
69619;Laerm;57653;51.434;5.984;2023-03-12T00:03:46;33.47;32.40;34.43;;
69619;Laerm;57653;51.434;5.984;2023-03-12T00:03:57;33.46;32.32;35.30;;
69619;Laerm;57653;51.434;5.984;2023-03-12T00:04:07;33.43;32.36;34.57;;
69619;Laerm;57653;51.434;5.984;2023-03-12T00:04:17;33.45;32.35;34.66;;
69619;Laerm;57653;51.434;5.984;2023-03-12T00:04:27;33.32;32.18;34.33;;
69619;Laerm;57653;51.434;5.984;2023-03-12T00:04:38;33.34;32.41;34.19;;
69619;Laerm;57653;51.434;5.984;2023-03-12T00:04:48;33.51;32.45;35.88;;
69619;Laerm;57653;51.434;5.984;2023-03-12T00:04:58;33.44;32.34;37.01;;
69619;Laerm;57653;51.434;5.984;2023-03-12T00:05:08;33.35;32.28;34.95;;
69619;Laerm;57653;51.434;5.984;2023-03-12T00:05:19;33.30;32.05;34.25;;
69619;Laerm;57653;51.434;5.984;2023-03-12T00:05:29;33.33;32.34;34.27;;
69619;Laerm;57653;51.434;5.984;2023-03-12T00:05:40;33.31;32.13;34.35;;
69619;Laerm;57653;51.434;5.984;2023-03-12T00:05:50;33.28;32.40;34.14;;
69619;Laerm;57653;51.434;5.984;2023-03-12T00:06:01;33.31;32.30;34.28;;
69619;Laerm;57653;51.434;5.984;2023-03-12T00:06:12;33.56;32.39;34.77;;
69619;Laerm;57653;51.434;5.984;2023-03-12T00:06:22;33.94;32.92;35.49;;
69619;Laerm;57653;51.434;5.984;2023-03-12T00:06:32;34.61;32.54;37.84;;
69619;Laerm;57653;51.434;5.984;2023-03-12T00:06:43;34.55;32.61;37.29;;
69619;Laerm;57653;51.434;5.984;2023-03-12T00:06:53;34.04;32.76;36.05;;
69619;Laerm;57653;51.434;5.984;2023-03-12T00:07:03;34.13;32.25;36.19;;
69619;Laerm;57653;51.434;5.984;2023-03-12T00:07:15;33.67;32.27;34.87;;
69619;Laerm;57653;51.434;5.984;2023-03-12T00:07:25;33.64;32.59;34.53;;
69619;Laerm;57653;51.434;5.984;2023-03-12T00:07:36;33.46;32.38;34.86;;
69619;Laerm;57653;51.434;5.984;2023-03-12T00:07:47;33.30;32.21;34.31;;
69619;Laerm;57653;51.434;5.984;2023-03-12T00:07:57;33.42;32.06;34.66;;
69619;Laerm;57653;51.434;5.984;2023-03-12T00:08:09;33.38;32.30;34.82;;
69619;Laerm;57653;51.434;5.984;2023-03-12T00:08:19;33.28;32.04;34.20;;
69619;Laerm;57653;51.434;5.984;2023-03-12T00:08:29;33.32;32.36;34.57;;
69619;Laerm;57653;51.434;5.984;2023-03-12T00:08:40;33.32;32.23;34.29;;
69619;Laerm;57653;51.434;5.984;2023-03-12T00:08:50;33.30;32.47;34.51;;
69619;Laerm;57653;51.434;5.984;2023-03-12T00:09:00;33.32;32.23;34.44;;
69619;Laerm;57653;51.434;5.984;2023-03-12T00:09:11;33.30;31.90;34.22;;
69619;Laerm;57653;51.434;5.984;2023-03-12T00:09:21;33.31;32.32;34.24;;
69619;Laerm;57653;51.434;5.984;2023-03-12T00:09:36;33.25;32.05;34.06;;
69619;Laerm;57653;51.434;5.984;2023-03-12T00:09:46;33.28;31.96;34.34;;
69619;Laerm;57653;51.434;5.984;2023-03-12T00:09:56;33.31;32.35;34.37;;
69619;Laerm;57653;51.434;5.984;2023-03-12T00:10:07;33.31;31.99;34.28;;
69619;Laerm;57653;51.434;5.984;2023-03-12T00:10:18;33.29;32.50;34.13;;
69619;Laerm;57653;51.434;5.984;2023-03-12T00:10:28;33.26;32.28;34.74;;
69619;Laerm;57653;51.434;5.984;2023-03-12T00:10:39;33.27;32.00;34.46;;
69619;Laerm;57653;51.434;5.984;2023-03-12T00:10:49;33.28;31.83;34.01;;
69619;Laerm;57653;51.434;5.984;2023-03-12T00:10:59;33.24;32.22;34.34;;
69619;Laerm;57653;51.434;5.984;2023-03-12T00:11:12;33.29;31.81;34.31;;
69619;Laerm;57653;51.434;5.984;2023-03-12T00:11:22;33.39;32.25;34.36;;
69619;Laerm;57653;51.434;5.984;2023-03-12T00:11:33;33.41;32.22;34.37;;
69619;Laerm;57653;51.434;5.984;2023-03-12T00:11:43;33.36;32.23;34.33;;
69619;Laerm;57653;51.434;5.984;2023-03-12T00:11:54;33.33;32.43;34.62;;
69619;Laerm;57653;51.434;5.984;2023-03-12T00:12:04;33.34;32.45;34.22;;
69619;Laerm;57653;51.434;5.984;2023-03-12T00:12:15;33.30;32.28;34.16;;
69619;Laerm;57653;51.434;5.984;2023-03-12T00:12:25;33.38;32.37;34.52;;
69619;Laerm;57653;51.434;5.984;2023-03-12T00:12:35;33.38;32.38;34.30;;
69619;Laerm;57653;51.434;5.984;2023-03-12T00:12:45;33.34;32.17;34.26;;
69619;Laerm;57653;51.434;5.984;2023-03-12T00:12:56;33.35;32.36;34.51;;
69619;Laerm;57653;51.434;5.984;2023-03-12T00:13:07;33.33;32.07;34.23;;
69619;Laerm;57653;51.434;5.984;2023-03-12T00:13:17;33.32;32.14;34.34;;
69619;Laerm;57653;51.434;5.984;2023-03-12T00:13:27;33.28;32.37;34.16;;
69619;Laerm;57653;51.434;5.984;2023-03-12T00:13:38;33.28;31.96;34.29;;
69619;Laerm;57653;51.434;5.984;2023-03-12T00:13:51;33.36;32.30;34.48;;
69619;Laerm;57653;51.434;5.984;2023-03-12T00:14:02;33.38;32.13;34.47;;
69619;Laerm;57653;51.434;5.984;2023-03-12T00:14:12;33.33;32.13;34.58;;
69619;Laerm;57653;51.434;5.984;2023-03-12T00:14:22;33.33;32.20;34.40;;
69619;Laerm;57653;51.434;5.984;2023-03-12T00:14:33;33.31;32.47;34.15;;
69619;Laerm;57653;51.434;5.984;2023-03-12T00:14:43;33.26;32.16;34.26;;
69619;Laerm;57653;51.434;5.984;2023-03-12T00:14:53;33.28;32.35;34.69;;
69619;Laerm;57653;51.434;5.984;2023-03-12T00:15:03;33.24;32.39;34.24;;
69619;Laerm;57653;51.434;5.984;2023-03-12T00:15:14;33.30;32.15;34.34;;
69619;Laerm;57653;51.434;5.984;2023-03-12T00:15:24;33.26;32.25;34.42;;
69619;Laerm;57653;51.434;5.984;2023-03-12T00:15:35;33.35;32.13;34.49;;
69619;Laerm;57653;51.434;5.984;2023-03-12T00:15:46;33.66;32.38;37.37;;
69619;Laerm;57653;51.434;5.984;2023-03-12T00:15:56;33.36;32.47;34.42;;
69619;Laerm;57653;51.434;5.984;2023-03-12T00:16:15;33.32;32.31;34.31;;
69619;Laerm;57653;51.434;5.984;2023-03-12T00:16:25;33.31;32.18;34.44;;
69619;Laerm;57653;51.434;5.984;2023-03-12T00:16:36;33.30;32.20;34.28;;
69619;Laerm;57653;51.434;5.984;2023-03-12T00:16:46;33.36;31.63;36.28;;
69619;Laerm;57653;51.434;5.984;2023-03-12T00:16:56;33.28;32.25;34.41;;
69619;Laerm;57653;51.434;5.984;2023-03-12T00:17:06;33.28;32.20;34.42;;
69619;Laerm;57653;51.434;5.984;2023-03-12T00:17:16;33.32;32.23;34.47;;
69619;Laerm;57653;51.434;5.984;2023-03-12T00:17:27;33.40;32.42;34.75;;
69619;Laerm;57653;51.434;5.984;2023-03-12T00:17:38;33.35;31.92;34.29;;
69619;Laerm;57653;51.434;5.984;2023-03-12T00:17:48;33.56;32.51;37.46;;
69619;Laerm;57653;51.434;5.984;2023-03-12T00:17:58;33.40;32.47;34.60;;
69619;Laerm;57653;51.434;5.984;2023-03-12T00:18:08;33.35;32.42;34.52;;
69619;Laerm;57653;51.434;5.984;2023-03-12T00:18:18;33.37;32.43;34.53;;
69619;Laerm;57653;51.434;5.984;2023-03-12T00:18:29;33.57;32.40;34.95;;
69619;Laerm;57653;51.434;5.984;2023-03-12T00:18:39;42.85;33.48;50.57;;
69619;Laerm;57653;51.434;5.984;2023-03-12T00:18:51;57.32;49.43;61.50;;
69619;Laerm;57653;51.434;5.984;2023-03-12T00:19:01;59.70;57.13;62.77;;
69619;Laerm;57653;51.434;5.984;2023-03-12T00:19:12;60.31;55.57;64.52;;
69619;Laerm;57653;51.434;5.984;2023-03-12T00:19:22;50.96;38.57;57.94;;
69619;Laerm;57653;51.434;5.984;2023-03-12T00:19:32;38.21;34.81;42.25;;
69619;Laerm;57653;51.434;5.984;2023-03-12T00:19:42;36.16;33.36;44.23;;
69619;Laerm;57653;51.434;5.984;2023-03-12T00:19:54;33.89;32.72;35.79;;
69619;Laerm;57653;51.434;5.984;2023-03-12T00:20:04;33.61;32.46;34.98;;
69619;Laerm;57653;51.434;5.984;2023-03-12T00:20:17;33.43;32.41;34.54;;
69619;Laerm;57653;51.434;5.984;2023-03-12T00:20:28;33.45;32.30;34.53;;
69619;Laerm;57653;51.434;5.984;2023-03-12T00:20:39;33.40;31.95;34.32;;
69619;Laerm;57653;51.434;5.984;2023-03-12T00:20:52;33.34;32.40;34.22;;
69619;Laerm;57653;51.434;5.984;2023-03-12T00:21:03;33.29;32.18;34.34;;
69619;Laerm;57653;51.434;5.984;2023-03-12T00:21:14;33.43;32.22;34.58;;
69619;Laerm;57653;51.434;5.984;2023-03-12T00:21:24;33.52;32.46;34.99;;
69619;Laerm;57653;51.434;5.984;2023-03-12T00:21:34;33.38;32.28;34.40;;
69619;Laerm;57653;51.434;5.984;2023-03-12T00:21:44;33.71;32.36;35.80;;
69619;Laerm;57653;51.434;5.984;2023-03-12T00:21:55;33.57;32.46;34.63;;
69619;Laerm;57653;51.434;5.984;2023-03-12T00:22:05;33.45;32.34;34.36;;
69619;Laerm;57653;51.434;5.984;2023-03-12T00:22:15;33.70;32.73;34.75;;
69619;Laerm;57653;51.434;5.984;2023-03-12T00:22:26;34.40;32.46;36.67;;
69619;Laerm;57653;51.434;5.984;2023-03-12T00:22:36;33.64;32.55;34.60;;
69619;Laerm;57653;51.434;5.984;2023-03-12T00:22:47;33.51;32.43;34.48;;
69619;Laerm;57653;51.434;5.984;2023-03-12T00:22:57;33.39;31.95;34.56;;
69619;Laerm;57653;51.434;5.984;2023-03-12T00:23:07;33.51;32.55;34.54;;
69619;Laerm;57653;51.434;5.984;2023-03-12T00:23:17;34.01;32.56;35.23;;
69619;Laerm;57653;51.434;5.984;2023-03-12T00:23:28;34.24;33.12;36.29;;
69619;Laerm;57653;51.434;5.984;2023-03-12T00:23:38;33.99;32.55;36.02;;
69619;Laerm;57653;51.434;5.984;2023-03-12T00:23:49;33.72;32.57;34.96;;
69619;Laerm;57653;51.434;5.984;2023-03-12T00:23:59;33.40;32.36;34.43;;
69619;Laerm;57653;51.434;5.984;2023-03-12T00:24:10;33.62;32.31;34.66;;
69619;Laerm;57653;51.434;5.984;2023-03-12T00:24:20;33.37;32.45;34.24;;
69619;Laerm;57653;51.434;5.984;2023-03-12T00:24:30;33.36;32.03;34.35;;
69619;Laerm;57653;51.434;5.984;2023-03-12T00:24:41;33.31;32.40;34.59;;
69619;Laerm;57653;51.434;5.984;2023-03-12T00:24:52;33.36;32.43;34.52;;
69619;Laerm;57653;51.434;5.984;2023-03-12T00:25:04;33.31;32.20;34.29;;
69619;Laerm;57653;51.434;5.984;2023-03-12T00:25:15;33.33;32.39;34.44;;
69619;Laerm;57653;51.434;5.984;2023-03-12T00:25:25;33.29;31.98;34.40;;
69619;Laerm;57653;51.434;5.984;2023-03-12T00:25:36;33.30;32.33;34.16;;
69619;Laerm;57653;51.434;5.984;2023-03-12T00:25:46;33.29;32.11;34.18;;
69619;Laerm;57653;51.434;5.984;2023-03-12T00:26:00;33.29;32.17;34.50;;
69619;Laerm;57653;51.434;5.984;2023-03-12T00:26:11;33.34;32.36;34.40;;
69619;Laerm;57653;51.434;5.984;2023-03-12T00:26:21;33.63;32.58;34.86;;
69619;Laerm;57653;51.434;5.984;2023-03-12T00:26:32;33.71;32.61;35.20;;
69619;Laerm;57653;51.434;5.984;2023-03-12T00:26:42;33.49;32.64;34.43;;
69619;Laerm;57653;51.434;5.984;2023-03-12T00:26:53;33.67;32.31;35.82;;
69619;Laerm;57653;51.434;5.984;2023-03-12T00:27:03;33.81;32.60;35.27;;
69619;Laerm;57653;51.434;5.984;2023-03-12T00:27:13;33.72;32.58;35.21;;
69619;Laerm;57653;51.434;5.984;2023-03-12T00:27:25;33.53;32.36;34.53;;
69619;Laerm;57653;51.434;5.984;2023-03-12T00:27:36;33.54;32.69;34.87;;
69619;Laerm;57653;51.434;5.984;2023-03-12T00:27:46;34.59;32.44;37.22;;
69619;Laerm;57653;51.434;5.984;2023-03-12T00:27:56;34.16;32.68;36.12;;
69619;Laerm;57653;51.434;5.984;2023-03-12T00:28:07;33.39;32.27;34.32;;
69619;Laerm;57653;51.434;5.984;2023-03-12T00:28:17;33.43;32.45;34.40;;
69619;Laerm;57653;51.434;5.984;2023-03-12T00:28:28;33.54;32.53;34.67;;
69619;Laerm;57653;51.434;5.984;2023-03-12T00:28:38;33.49;32.52;34.51;;
69619;Laerm;57653;51.434;5.984;2023-03-12T00:28:49;33.45;32.29;34.80;;
69619;Laerm;57653;51.434;5.984;2023-03-12T00:28:59;33.35;32.32;34.49;;
69619;Laerm;57653;51.434;5.984;2023-03-12T00:29:10;33.37;32.26;34.27;;
69619;Laerm;57653;51.434;5.984;2023-03-12T00:29:20;33.31;32.31;34.31;;
69619;Laerm;57653;51.434;5.984;2023-03-12T00:29:30;33.31;32.22;34.28;;
69619;Laerm;57653;51.434;5.984;2023-03-12T00:29:40;33.34;32.26;34.63;;
69619;Laerm;57653;51.434;5.984;2023-03-12T00:29:51;33.35;32.46;34.33;;
69619;Laerm;57653;51.434;5.984;2023-03-12T00:30:02;33.30;32.17;34.28;;
69619;Laerm;57653;51.434;5.984;2023-03-12T00:30:12;33.31;32.26;34.32;;
69619;Laerm;57653;51.434;5.984;2023-03-12T00:30:23;33.35;32.45;34.45;;
69619;Laerm;57653;51.434;5.984;2023-03-12T00:30:33;33.28;32.35;34.16;;
69619;Laerm;57653;51.434;5.984;2023-03-12T00:30:43;33.33;32.13;34.21;;
69619;Laerm;57653;51.434;5.984;2023-03-12T00:30:53;33.36;32.33;34.51;;
69619;Laerm;57653;51.434;5.984;2023-03-12T00:31:12;33.34;31.88;34.23;;
69619;Laerm;57653;51.434;5.984;2023-03-12T00:31:24;33.38;32.17;34.39;;
69619;Laerm;57653;51.434;5.984;2023-03-12T00:31:36;33.35;32.23;34.41;;
69619;Laerm;57653;51.434;5.984;2023-03-12T00:31:46;33.38;32.28;34.20;;
69619;Laerm;57653;51.434;5.984;2023-03-12T00:31:57;33.32;32.44;34.31;;
69619;Laerm;57653;51.434;5.984;2023-03-12T00:32:07;33.31;32.31;34.28;;
69619;Laerm;57653;51.434;5.984;2023-03-12T00:32:17;33.31;32.26;34.30;;
69619;Laerm;57653;51.434;5.984;2023-03-12T00:32:28;33.38;32.34;34.24;;
69619;Laerm;57653;51.434;5.984;2023-03-12T00:32:38;33.32;32.21;34.32;;
69619;Laerm;57653;51.434;5.984;2023-03-12T00:32:48;33.25;32.30;34.20;;
69619;Laerm;57653;51.434;5.984;2023-03-12T00:32:59;33.25;32.21;34.26;;
69619;Laerm;57653;51.434;5.984;2023-03-12T00:33:09;33.33;32.28;34.75;;
69619;Laerm;57653;51.434;5.984;2023-03-12T00:33:20;33.29;32.11;34.38;;
69619;Laerm;57653;51.434;5.984;2023-03-12T00:33:30;33.32;32.37;34.29;;
69619;Laerm;57653;51.434;5.984;2023-03-12T00:33:41;33.28;32.40;34.16;;
69619;Laerm;57653;51.434;5.984;2023-03-12T00:33:52;33.27;32.37;34.29;;
69619;Laerm;57653;51.434;5.984;2023-03-12T00:34:02;33.27;32.19;34.12;;
69619;Laerm;57653;51.434;5.984;2023-03-12T00:34:12;33.29;31.95;34.10;;
69619;Laerm;57653;51.434;5.984;2023-03-12T00:34:23;33.26;32.02;34.20;;
69619;Laerm;57653;51.434;5.984;2023-03-12T00:34:33;33.26;32.04;34.83;;
69619;Laerm;57653;51.434;5.984;2023-03-12T00:34:43;33.27;32.32;34.18;;
69619;Laerm;57653;51.434;5.984;2023-03-12T00:34:54;33.27;31.96;34.56;;
69619;Laerm;57653;51.434;5.984;2023-03-12T00:35:04;33.25;32.15;34.49;;
69619;Laerm;57653;51.434;5.984;2023-03-12T00:35:15;33.29;32.39;34.17;;
69619;Laerm;57653;51.434;5.984;2023-03-12T00:35:25;33.26;32.35;34.26;;
69619;Laerm;57653;51.434;5.984;2023-03-12T00:35:36;33.28;32.05;34.29;;
69619;Laerm;57653;51.434;5.984;2023-03-12T00:35:46;33.27;32.16;34.18;;
69619;Laerm;57653;51.434;5.984;2023-03-12T00:35:58;33.31;32.18;34.59;;
69619;Laerm;57653;51.434;5.984;2023-03-12T00:36:09;33.25;32.25;34.25;;
69619;Laerm;57653;51.434;5.984;2023-03-12T00:36:20;33.32;32.22;34.52;;
69619;Laerm;57653;51.434;5.984;2023-03-12T00:36:32;33.28;32.24;34.17;;
69619;Laerm;57653;51.434;5.984;2023-03-12T00:36:43;33.28;32.11;34.53;;
69619;Laerm;57653;51.434;5.984;2023-03-12T00:36:53;33.25;32.16;34.02;;
69619;Laerm;57653;51.434;5.984;2023-03-12T00:37:03;33.31;32.14;34.34;;
69619;Laerm;57653;51.434;5.984;2023-03-12T00:37:13;33.26;32.13;34.39;;
69619;Laerm;57653;51.434;5.984;2023-03-12T00:37:24;33.30;32.30;34.22;;
69619;Laerm;57653;51.434;5.984;2023-03-12T00:37:35;33.36;32.39;34.73;;
69619;Laerm;57653;51.434;5.984;2023-03-12T00:37:45;33.40;32.33;34.52;;
69619;Laerm;57653;51.434;5.984;2023-03-12T00:37:55;33.53;32.41;34.49;;
69619;Laerm;57653;51.434;5.984;2023-03-12T00:38:05;33.43;32.10;34.55;;
69619;Laerm;57653;51.434;5.984;2023-03-12T00:38:16;33.45;32.50;34.51;;
69619;Laerm;57653;51.434;5.984;2023-03-12T00:38:26;33.40;32.44;34.38;;
69619;Laerm;57653;51.434;5.984;2023-03-12T00:38:36;33.27;32.03;34.28;;
69619;Laerm;57653;51.434;5.984;2023-03-12T00:38:46;33.34;32.39;34.33;;
69619;Laerm;57653;51.434;5.984;2023-03-12T00:38:57;33.59;32.32;35.72;;
69619;Laerm;57653;51.434;5.984;2023-03-12T00:39:08;33.99;32.60;37.53;;
69619;Laerm;57653;51.434;5.984;2023-03-12T00:39:19;37.50;34.64;40.21;;
69619;Laerm;57653;51.434;5.984;2023-03-12T00:39:29;35.81;33.28;39.84;;
69619;Laerm;57653;51.434;5.984;2023-03-12T00:39:39;33.81;32.50;34.94;;
69619;Laerm;57653;51.434;5.984;2023-03-12T00:39:49;33.41;32.46;34.55;;
69619;Laerm;57653;51.434;5.984;2023-03-12T00:40:00;33.41;32.13;34.54;;
69619;Laerm;57653;51.434;5.984;2023-03-12T00:40:12;33.56;32.69;34.71;;
69619;Laerm;57653;51.434;5.984;2023-03-12T00:40:22;33.60;32.36;34.92;;
69619;Laerm;57653;51.434;5.984;2023-03-12T00:40:32;33.49;32.24;34.88;;
69619;Laerm;57653;51.434;5.984;2023-03-12T00:40:42;33.40;31.83;34.50;;
69619;Laerm;57653;51.434;5.984;2023-03-12T00:40:53;33.62;32.54;34.69;;
69619;Laerm;57653;51.434;5.984;2023-03-12T00:41:03;33.36;32.29;34.58;;
69619;Laerm;57653;51.434;5.984;2023-03-12T00:41:13;33.32;32.40;34.24;;
69619;Laerm;57653;51.434;5.984;2023-03-12T00:41:24;33.33;32.40;34.32;;
69619;Laerm;57653;51.434;5.984;2023-03-12T00:41:34;33.31;32.30;34.31;;
69619;Laerm;57653;51.434;5.984;2023-03-12T00:41:44;33.30;32.08;34.69;;
69619;Laerm;57653;51.434;5.984;2023-03-12T00:41:55;33.35;32.38;34.50;;
69619;Laerm;57653;51.434;5.984;2023-03-12T00:42:05;33.57;32.38;34.63;;
69619;Laerm;57653;51.434;5.984;2023-03-12T00:42:15;33.48;32.42;34.81;;
69619;Laerm;57653;51.434;5.984;2023-03-12T00:42:26;33.48;32.10;34.43;;
69619;Laerm;57653;51.434;5.984;2023-03-12T00:42:37;33.42;32.37;34.34;;
69619;Laerm;57653;51.434;5.984;2023-03-12T00:42:47;33.48;32.61;34.39;;
69619;Laerm;57653;51.434;5.984;2023-03-12T00:42:57;33.38;32.20;34.96;;
69619;Laerm;57653;51.434;5.984;2023-03-12T00:43:07;33.38;32.56;34.32;;
69619;Laerm;57653;51.434;5.984;2023-03-12T00:43:18;33.44;32.47;34.35;;
69619;Laerm;57653;51.434;5.984;2023-03-12T00:43:28;33.99;32.31;41.33;;
69619;Laerm;57653;51.434;5.984;2023-03-12T00:43:38;34.22;32.45;40.06;;
69619;Laerm;57653;51.434;5.984;2023-03-12T00:43:49;34.14;32.29;41.72;;
69619;Laerm;57653;51.434;5.984;2023-03-12T00:43:59;34.59;32.79;40.21;;
69619;Laerm;57653;51.434;5.984;2023-03-12T00:44:09;33.82;32.49;36.46;;
69619;Laerm;57653;51.434;5.984;2023-03-12T00:44:20;33.68;32.63;34.67;;
69619;Laerm;57653;51.434;5.984;2023-03-12T00:44:30;33.64;32.65;34.91;;
69619;Laerm;57653;51.434;5.984;2023-03-12T00:44:40;33.54;32.65;34.46;;
69619;Laerm;57653;51.434;5.984;2023-03-12T00:44:50;33.49;32.35;34.71;;
69619;Laerm;57653;51.434;5.984;2023-03-12T00:45:01;33.34;32.02;34.39;;
69619;Laerm;57653;51.434;5.984;2023-03-12T00:45:11;33.36;31.84;34.47;;
69619;Laerm;57653;51.434;5.984;2023-03-12T00:45:21;33.43;32.50;34.41;;
69619;Laerm;57653;51.434;5.984;2023-03-12T00:45:31;33.55;32.23;35.36;;
69619;Laerm;57653;51.434;5.984;2023-03-12T00:45:42;33.61;32.34;35.02;;
69619;Laerm;57653;51.434;5.984;2023-03-12T00:45:53;34.83;32.67;39.83;;
69619;Laerm;57653;51.434;5.984;2023-03-12T00:46:03;58.73;38.39;63.89;;
69619;Laerm;57653;51.434;5.984;2023-03-12T00:46:14;61.33;59.53;64.03;;
69619;Laerm;57653;51.434;5.984;2023-03-12T00:46:24;61.45;56.97;64.39;;
69619;Laerm;57653;51.434;5.984;2023-03-12T00:46:34;50.88;36.69;59.25;;
69619;Laerm;57653;51.434;5.984;2023-03-12T00:46:45;36.21;33.47;39.49;;
69619;Laerm;57653;51.434;5.984;2023-03-12T00:46:55;34.72;32.93;36.62;;
69619;Laerm;57653;51.434;5.984;2023-03-12T00:47:05;34.33;32.79;36.33;;
69619;Laerm;57653;51.434;5.984;2023-03-12T00:47:16;34.08;32.99;35.47;;
69619;Laerm;57653;51.434;5.984;2023-03-12T00:47:26;33.53;32.37;34.70;;
69619;Laerm;57653;51.434;5.984;2023-03-12T00:47:36;33.44;32.39;34.39;;
69619;Laerm;57653;51.434;5.984;2023-03-12T00:47:46;33.44;32.46;34.49;;
69619;Laerm;57653;51.434;5.984;2023-03-12T00:47:57;33.46;32.44;34.42;;
69619;Laerm;57653;51.434;5.984;2023-03-12T00:48:07;33.43;32.24;34.89;;
69619;Laerm;57653;51.434;5.984;2023-03-12T00:48:17;33.42;32.08;34.27;;
69619;Laerm;57653;51.434;5.984;2023-03-12T00:48:27;33.38;32.28;34.37;;
69619;Laerm;57653;51.434;5.984;2023-03-12T00:48:38;33.38;32.31;34.37;;
69619;Laerm;57653;51.434;5.984;2023-03-12T00:48:48;33.35;32.16;34.28;;
69619;Laerm;57653;51.434;5.984;2023-03-12T00:48:59;33.37;32.26;34.25;;
69619;Laerm;57653;51.434;5.984;2023-03-12T00:49:09;33.39;32.38;34.44;;
69619;Laerm;57653;51.434;5.984;2023-03-12T00:49:20;33.32;32.32;34.31;;
69619;Laerm;57653;51.434;5.984;2023-03-12T00:49:31;33.33;32.24;34.36;;
69619;Laerm;57653;51.434;5.984;2023-03-12T00:49:41;33.39;32.08;34.49;;
69619;Laerm;57653;51.434;5.984;2023-03-12T00:49:51;33.32;32.46;34.20;;
69619;Laerm;57653;51.434;5.984;2023-03-12T00:50:02;33.30;31.95;34.37;;
69619;Laerm;57653;51.434;5.984;2023-03-12T00:50:12;33.39;32.07;35.88;;
69619;Laerm;57653;51.434;5.984;2023-03-12T00:50:22;33.34;32.41;34.31;;
69619;Laerm;57653;51.434;5.984;2023-03-12T00:50:32;33.32;32.13;34.25;;
69619;Laerm;57653;51.434;5.984;2023-03-12T00:50:43;33.43;32.15;34.56;;
69619;Laerm;57653;51.434;5.984;2023-03-12T00:50:53;42.46;32.74;51.93;;
69619;Laerm;57653;51.434;5.984;2023-03-12T00:51:03;62.52;50.63;65.64;;
69619;Laerm;57653;51.434;5.984;2023-03-12T00:51:13;63.27;61.87;64.90;;
69619;Laerm;57653;51.434;5.984;2023-03-12T00:51:24;61.30;53.33;64.62;;
69619;Laerm;57653;51.434;5.984;2023-03-12T00:51:34;46.46;38.16;53.80;;
69619;Laerm;57653;51.434;5.984;2023-03-12T00:51:44;36.91;33.95;40.77;;
69619;Laerm;57653;51.434;5.984;2023-03-12T00:51:55;34.51;33.13;35.74;;
69619;Laerm;57653;51.434;5.984;2023-03-12T00:52:05;34.31;32.97;35.48;;
69619;Laerm;57653;51.434;5.984;2023-03-12T00:52:15;33.97;32.97;35.18;;
69619;Laerm;57653;51.434;5.984;2023-03-12T00:52:25;33.57;32.28;35.20;;
69619;Laerm;57653;51.434;5.984;2023-03-12T00:52:36;33.42;32.24;34.32;;
69619;Laerm;57653;51.434;5.984;2023-03-12T00:52:46;33.38;32.39;34.66;;
69619;Laerm;57653;51.434;5.984;2023-03-12T00:52:56;33.38;32.35;34.76;;
69619;Laerm;57653;51.434;5.984;2023-03-12T00:53:06;33.37;32.19;34.42;;
69619;Laerm;57653;51.434;5.984;2023-03-12T00:53:17;33.38;32.20;36.62;;
69619;Laerm;57653;51.434;5.984;2023-03-12T00:53:27;33.40;32.47;34.51;;
69619;Laerm;57653;51.434;5.984;2023-03-12T00:53:37;33.55;32.42;36.48;;
69619;Laerm;57653;51.434;5.984;2023-03-12T00:53:48;33.51;32.59;34.52;;
69619;Laerm;57653;51.434;5.984;2023-03-12T00:53:58;33.60;32.46;37.31;;
69619;Laerm;57653;51.434;5.984;2023-03-12T00:54:09;33.38;32.41;34.41;;
69619;Laerm;57653;51.434;5.984;2023-03-12T00:54:19;33.57;32.59;34.82;;
69619;Laerm;57653;51.434;5.984;2023-03-12T00:54:29;33.53;32.27;37.37;;
69619;Laerm;57653;51.434;5.984;2023-03-12T00:54:40;33.42;32.29;34.39;;
69619;Laerm;57653;51.434;5.984;2023-03-12T00:54:50;33.36;32.38;34.39;;
69619;Laerm;57653;51.434;5.984;2023-03-12T00:55:01;33.35;32.43;34.65;;
69619;Laerm;57653;51.434;5.984;2023-03-12T00:55:11;33.37;32.26;34.47;;
69619;Laerm;57653;51.434;5.984;2023-03-12T00:55:21;33.40;32.41;34.45;;
69619;Laerm;57653;51.434;5.984;2023-03-12T00:55:31;33.41;32.44;34.25;;
69619;Laerm;57653;51.434;5.984;2023-03-12T00:55:42;33.55;32.58;34.42;;
69619;Laerm;57653;51.434;5.984;2023-03-12T00:55:52;33.37;32.29;34.52;;
69619;Laerm;57653;51.434;5.984;2023-03-12T00:56:02;33.39;32.22;34.63;;
69619;Laerm;57653;51.434;5.984;2023-03-12T00:56:13;33.36;32.35;34.45;;
69619;Laerm;57653;51.434;5.984;2023-03-12T00:56:23;33.37;32.36;34.43;;
69619;Laerm;57653;51.434;5.984;2023-03-12T00:56:33;33.35;32.40;34.34;;
69619;Laerm;57653;51.434;5.984;2023-03-12T00:56:44;33.35;32.27;34.36;;
69619;Laerm;57653;51.434;5.984;2023-03-12T00:56:55;33.30;32.37;34.20;;
69619;Laerm;57653;51.434;5.984;2023-03-12T00:57:06;33.28;32.37;34.33;;
69619;Laerm;57653;51.434;5.984;2023-03-12T00:57:16;33.29;32.10;34.54;;
69619;Laerm;57653;51.434;5.984;2023-03-12T00:57:26;33.29;32.30;34.32;;
69619;Laerm;57653;51.434;5.984;2023-03-12T00:57:36;33.31;31.99;34.25;;
69619;Laerm;57653;51.434;5.984;2023-03-12T00:57:46;33.31;32.41;34.66;;
69619;Laerm;57653;51.434;5.984;2023-03-12T00:57:57;33.28;32.20;34.34;;
69619;Laerm;57653;51.434;5.984;2023-03-12T00:58:07;33.28;32.25;34.35;;
69619;Laerm;57653;51.434;5.984;2023-03-12T00:58:17;33.31;32.30;34.20;;
69619;Laerm;57653;51.434;5.984;2023-03-12T00:58:28;33.26;32.29;34.50;;
69619;Laerm;57653;51.434;5.984;2023-03-12T00:58:38;33.32;32.31;34.46;;
69619;Laerm;57653;51.434;5.984;2023-03-12T00:58:48;33.34;31.92;34.38;;
69619;Laerm;57653;51.434;5.984;2023-03-12T00:58:58;33.37;32.36;34.78;;